ヌクアロファ の空港の天気 - METARとTAF

ファアモツ国際空港 ( NFTF / TBU ) - トンガ ヌクアロファ
飛行場実況気象(Metar)
観測時間09/30 19:00 TOT (09/30 06:00 UTC)
風向・風速北 6m/s
視程10km以上
天気現象
少しの雲 雲底高度 300m
全天の4割程度の雲 雲底高度 490m
全天の8割程度の雲 雲底高度 3660m
気温25℃
湿度94%
気圧1010hPa
METARNFTF 300600Z 01011KT 9999 FEW010 SCT016 BKN120 25/24 Q1010
過去の天気等 Google飛行場航空写真 Wunderground天気予報

過去48時間のMETAR

飛行場予報(TAF)
発表時間: 9/30 18:18 TOT (9/30 05:18 UTC)
予報対象時間: 30日19時 TOT ~ 1日19時 TOT
風向・風速北北東 8m/s
視程10km以上
天気現象弱いしゅう雨
少しの雲 雲底高度 210m
全天の8割程度の雲 雲底高度 490m
全天を覆う雲 雲底高度 3050m
30日19時 TOT ~ 1日1時 TOT に一時的に
風向・風速北 8m/s 瞬間風速 15m/s
視程1500m
天気現象強い雷雨
全天の8割程度の雲 雲底高度 210m
全天の4割程度の積乱雲 雲底高度 490m
1日1時 TOT ~ 1日7時 TOT に一時的に
風向・風速北 8m/s 瞬間風速 15m/s
視程3000m
天気現象雷雨
全天の4割程度の雲 雲底高度 210m
全天の4割程度の積乱雲 雲底高度 460m
1日9時 TOT から
風向・風速南南西 5m/s
視程10km以上
全天の4割程度の雲 雲底高度 520m
TAF NFTF 300518Z 3006/0106 02015KT 9999 -SHRA FEW007 BKN016 OVC100
TEMPO 3006/3012 01015G30KT 1500 +TSRA BKN007 SCT016CB
TEMPO 3012/3018 35015G30KT 3000 TSRA SCT007 SCT015CB
FM302000 20010KT 9999 SCT017